Terminal Aerodrome Forecast
Issued by NWS Central Illinois

Home | Current Version | Previous Version | Text Only | Print | Product List | Glossary On
Versions: 1 2 3 4 5 6 7 8 9 10 11 12 13
754
FTUS43 KILX 251646 AAA
TAFSPI
TAF AMD
KSPI 251646Z 2517/2612 18010KT P6SM SCT100 BKN250
     FM251800 18011G18KT P6SM VCTS SCT050CB BKN150
     FM260200 19010KT P6SM VCSH BKN050 BKN120=

USA.gov is the U.S. government's official web portal to all federal, state and local government web resources and services.